createdAt,value
2018-12-28T00:00:30.889Z,54.60
2018-12-28T00:02:59.950Z,54.58
2018-12-28T00:05:28.964Z,54.59
2018-12-28T00:07:57.924Z,54.63
2018-12-28T00:10:26.932Z,54.73
2018-12-28T00:12:55.949Z,54.78
2018-12-28T00:15:24.990Z,54.77
2018-12-28T00:17:54.053Z,54.80
2018-12-28T00:20:23.113Z,54.79
2018-12-28T00:22:52.153Z,54.74
2018-12-28T00:25:21.162Z,54.75
2018-12-28T00:27:50.276Z,54.76
2018-12-28T00:30:19.318Z,54.78
2018-12-28T00:32:48.369Z,54.80
2018-12-28T00:35:17.399Z,54.78
2018-12-28T00:37:46.479Z,54.92
2018-12-28T00:40:15.473Z,54.98
2018-12-28T00:42:44.495Z,55.07
2018-12-28T00:45:13.537Z,55.19
2018-12-28T00:47:42.613Z,55.33
2018-12-28T00:50:11.635Z,55.43
2018-12-28T00:52:40.698Z,55.43
2018-12-28T00:55:09.719Z,55.61
2018-12-28T00:57:38.770Z,55.56
2018-12-28T01:00:08.172Z,55.56
2018-12-28T01:02:37.209Z,55.63
2018-12-28T01:05:06.217Z,55.68
2018-12-28T01:07:35.248Z,55.80
2018-12-28T01:10:04.567Z,55.85
2018-12-28T01:12:33.588Z,55.77
2018-12-28T01:15:02.624Z,55.78
2018-12-28T01:17:31.648Z,55.81
2018-12-28T01:20:02.511Z,55.95
2018-12-28T01:22:31.561Z,56.05
2018-12-28T01:25:00.652Z,55.92
2018-12-28T01:27:29.681Z,55.99
2018-12-28T01:29:58.803Z,56.16
2018-12-28T01:32:27.831Z,56.38
2018-12-28T01:34:56.903Z,56.40
2018-12-28T01:37:25.917Z,56.42
2018-12-28T01:39:55.040Z,56.43
2018-12-28T01:42:24.118Z,56.44
2018-12-28T01:44:53.211Z,56.46
2018-12-28T01:47:22.220Z,56.44
2018-12-28T01:49:51.239Z,56.50
2018-12-28T01:52:20.307Z,56.50
2018-12-28T01:54:49.339Z,56.54
2018-12-28T01:57:18.403Z,56.58
2018-12-28T01:59:47.479Z,56.62
2018-12-28T02:02:16.599Z,56.69
2018-12-28T02:04:45.620Z,56.71
2018-12-28T02:07:14.721Z,56.82
2018-12-28T02:09:43.781Z,56.85
2018-12-28T02:12:12.877Z,56.93
2018-12-28T02:14:41.896Z,56.94
2018-12-28T02:17:10.928Z,56.96
2018-12-28T02:19:39.952Z,56.98
2018-12-28T02:22:09.108Z,57.06
2018-12-28T02:24:38.117Z,57.07
2018-12-28T02:27:07.211Z,57.00
2018-12-28T02:29:36.265Z,56.96
2018-12-28T02:32:05.342Z,57.01
2018-12-28T02:34:34.363Z,57.09
2018-12-28T02:37:03.401Z,57.20
2018-12-28T02:39:36.625Z,57.26
2018-12-28T02:42:06.118Z,57.27
2018-12-28T02:44:35.150Z,57.27
2018-12-28T02:47:04.206Z,57.26
2018-12-28T02:49:33.208Z,57.13
2018-12-28T02:52:02.204Z,56.98
2018-12-28T02:54:31.275Z,56.93
2018-12-28T02:57:00.323Z,56.99
2018-12-28T02:59:29.442Z,57.00
2018-12-28T03:01:58.983Z,57.06
2018-12-28T03:04:28.022Z,57.08
2018-12-28T03:06:57.049Z,57.11
2018-12-28T03:09:26.130Z,57.17
2018-12-28T03:11:55.261Z,57.26
2018-12-28T03:14:24.364Z,57.33
2018-12-28T03:16:53.394Z,57.42
2018-12-28T03:19:22.500Z,57.49
2018-12-28T03:21:51.556Z,57.48
2018-12-28T03:24:20.587Z,57.54
2018-12-28T03:26:49.652Z,57.58
2018-12-28T03:29:18.735Z,57.58
2018-12-28T03:31:47.763Z,57.64
2018-12-28T03:34:16.768Z,57.68
2018-12-28T03:36:45.812Z,57.68
2018-12-28T03:39:14.849Z,57.69
2018-12-28T03:41:43.907Z,57.80
2018-12-28T03:44:12.997Z,57.83
2018-12-28T03:46:42.058Z,57.87
2018-12-28T03:49:11.184Z,57.95
2018-12-28T03:51:40.265Z,57.89
2018-12-28T03:54:09.294Z,57.94
2018-12-28T03:56:38.344Z,58.00
2018-12-28T03:59:07.381Z,58.03
2018-12-28T04:01:36.463Z,58.09
2018-12-28T04:04:05.528Z,58.10
2018-12-28T04:06:34.604Z,58.07
2018-12-28T04:09:04.147Z,58.10
2018-12-28T04:11:33.224Z,58.12
2018-12-28T04:14:02.285Z,58.19
2018-12-28T04:16:31.375Z,58.22
2018-12-28T04:19:00.436Z,58.27
2018-12-28T04:21:29.620Z,58.27
2018-12-28T04:23:58.945Z,58.26
2018-12-28T04:26:28.007Z,58.26
2018-12-28T04:28:57.072Z,58.26
2018-12-28T04:31:26.113Z,58.26
2018-12-28T04:33:55.218Z,58.30
2018-12-28T04:36:24.253Z,58.31
2018-12-28T04:38:53.340Z,58.37
2018-12-28T04:41:22.352Z,58.42
2018-12-28T04:43:51.438Z,58.44
2018-12-28T04:46:20.442Z,58.44
2018-12-28T04:48:49.502Z,58.45
2018-12-28T04:51:18.561Z,58.44
2018-12-28T04:53:47.655Z,58.44
2018-12-28T04:56:16.754Z,58.42
2018-12-28T04:58:45.826Z,58.40
2018-12-28T05:01:19.872Z,58.44
2018-12-28T05:04:10.782Z,58.45
2018-12-28T05:07:12.774Z,58.49
2018-12-28T05:10:06.100Z,58.60
2018-12-28T05:13:07.551Z,58.67
2018-12-28T05:16:06.902Z,58.76
2018-12-28T05:19:06.802Z,58.82
2018-12-28T05:22:15.711Z,58.87
2018-12-28T05:25:27.877Z,58.87
2018-12-28T05:28:37.282Z,58.93
2018-12-28T05:31:12.573Z,58.92
2018-12-28T05:33:41.753Z,59.11
2018-12-28T05:36:11.019Z,59.15
2018-12-28T05:38:40.120Z,59.19
2018-12-28T05:41:09.545Z,59.16
2018-12-28T05:43:38.614Z,59.16
2018-12-28T05:46:07.730Z,59.17
2018-12-28T05:48:36.782Z,59.14
2018-12-28T05:51:05.956Z,59.20
2018-12-28T05:53:35.361Z,59.23
2018-12-28T05:56:04.511Z,59.29
2018-12-28T05:58:33.547Z,59.29
2018-12-28T06:01:02.675Z,59.32
2018-12-28T06:03:31.713Z,59.33
2018-12-28T06:06:00.864Z,59.25
2018-12-28T06:08:29.919Z,59.32
2018-12-28T06:11:00.623Z,59.36
2018-12-28T06:13:29.683Z,59.40
2018-12-28T06:15:58.837Z,59.39
2018-12-28T06:18:27.913Z,59.42
2018-12-28T06:20:57.015Z,59.38
2018-12-28T06:23:26.103Z,59.41
2018-12-28T06:25:55.993Z,59.39
2018-12-28T06:28:25.029Z,59.28
2018-12-28T06:30:54.222Z,59.34
2018-12-28T06:33:23.282Z,59.33
2018-12-28T06:35:52.395Z,59.32
2018-12-28T06:38:21.534Z,59.34
2018-12-28T06:40:50.617Z,59.38
2018-12-28T06:43:19.685Z,59.39
2018-12-28T06:45:48.753Z,59.37
2018-12-28T06:48:17.869Z,59.21
2018-12-28T06:50:46.919Z,59.26
2018-12-28T06:54:03.248Z,59.26
2018-12-28T06:57:12.008Z,59.25
2018-12-28T07:00:27.580Z,59.25
2018-12-28T07:03:46.623Z,59.42
2018-12-28T07:07:11.904Z,59.67
2018-12-28T07:10:24.659Z,59.56
2018-12-28T07:13:33.322Z,59.52
2018-12-28T07:16:38.756Z,59.66
2018-12-28T07:19:44.145Z,59.69
2018-12-28T07:22:42.756Z,59.85
2018-12-28T07:25:56.300Z,59.87
2018-12-28T07:29:06.367Z,59.82
2018-12-28T07:32:22.417Z,59.72
2018-12-28T07:35:50.859Z,59.73
2018-12-28T07:38:59.490Z,59.67
2018-12-28T07:42:05.703Z,59.68
2018-12-28T07:45:21.990Z,59.63
2018-12-28T07:48:06.128Z,59.70
2018-12-28T07:51:12.418Z,59.64
2018-12-28T07:54:40.882Z,59.59
2018-12-28T07:57:43.046Z,59.66
2018-12-28T08:00:48.238Z,59.66
2018-12-28T08:03:58.543Z,59.82
2018-12-28T08:06:57.284Z,59.71
2018-12-28T08:10:00.970Z,59.53
2018-12-28T08:13:11.039Z,59.47
2018-12-28T08:16:13.778Z,59.31
2018-12-28T08:19:32.785Z,59.21
2018-12-28T08:22:23.071Z,59.11
2018-12-28T08:25:23.683Z,59.00
2018-12-28T08:28:35.866Z,58.92
2018-12-28T08:31:47.987Z,58.86
2018-12-28T08:34:56.684Z,58.85
2018-12-28T08:37:54.161Z,57.66
2018-12-28T08:41:09.520Z,55.17
2018-12-28T08:44:09.164Z,52.58
2018-12-28T08:47:41.587Z,50.19
2018-12-28T08:50:51.655Z,46.91
2018-12-28T08:54:09.440Z,44.54
2018-12-28T08:57:30.923Z,42.36
2018-12-28T09:00:45.535Z,40.66
2018-12-28T09:03:52.173Z,38.96
2018-12-28T09:06:58.524Z,37.60
2018-12-28T09:10:11.777Z,36.14
2018-12-28T09:13:19.183Z,34.99
2018-12-28T09:16:35.373Z,33.41
2018-12-28T14:25:48.328Z,33.95
2018-12-28T14:28:17.493Z,34.24
2018-12-28T14:30:46.532Z,34.43
2018-12-28T18:30:31.419Z,42.65
2018-12-28T18:33:00.789Z,42.70
2018-12-28T18:35:29.987Z,42.61
2018-12-28T18:37:59.466Z,43.04
2018-12-28T18:40:28.850Z,43.33
2018-12-28T18:42:58.035Z,43.04
2018-12-28T18:45:27.168Z,42.88
2018-12-28T18:47:56.273Z,43.01
2018-12-28T18:50:25.428Z,42.86
2018-12-28T18:52:54.556Z,42.72
2018-12-28T18:55:23.657Z,42.69
2018-12-28T18:57:52.773Z,42.92
2018-12-28T19:00:21.855Z,42.81
2018-12-28T19:02:50.983Z,42.82
2018-12-28T19:05:20.112Z,42.89
2018-12-28T19:07:49.181Z,42.92
2018-12-28T19:10:18.305Z,43.02
2018-12-28T19:12:47.352Z,43.03
2018-12-28T19:15:16.782Z,43.19
2018-12-28T19:17:45.860Z,43.16
2018-12-28T19:20:15.562Z,43.21
2018-12-28T19:22:44.730Z,43.29
2018-12-28T19:25:13.853Z,43.30
2018-12-28T19:27:43.303Z,43.30
2018-12-28T19:30:12.435Z,43.42
2018-12-28T19:32:41.739Z,43.50
2018-12-28T19:35:10.858Z,43.52
2018-12-28T19:37:39.963Z,43.59
2018-12-28T19:40:09.180Z,43.77
2018-12-28T19:42:38.236Z,43.79
2018-12-28T19:45:07.419Z,43.79
2018-12-28T19:47:36.585Z,43.91
2018-12-28T19:50:06.047Z,44.01
2018-12-28T19:52:35.155Z,43.98
2018-12-28T19:55:04.290Z,44.01
2018-12-28T19:57:34.288Z,44.03
2018-12-28T20:00:03.600Z,44.08
2018-12-28T20:02:32.641Z,44.05
2018-12-28T20:05:01.721Z,44.11
2018-12-28T20:07:30.772Z,44.16
2018-12-28T20:10:02.715Z,44.26
2018-12-28T20:12:31.863Z,44.26
2018-12-28T20:15:01.370Z,44.24
2018-12-28T20:17:30.540Z,44.29
2018-12-28T20:19:59.649Z,44.38
2018-12-28T20:22:28.953Z,44.42
2018-12-28T20:24:58.233Z,44.55
2018-12-28T20:27:27.474Z,44.61
2018-12-28T20:29:56.644Z,44.69
2018-12-28T20:32:26.071Z,44.77
2018-12-28T20:34:55.584Z,44.88
2018-12-28T20:37:24.667Z,44.81
2018-12-28T20:39:53.837Z,44.92
2018-12-28T20:42:23.053Z,44.91
2018-12-28T20:44:52.183Z,44.94
2018-12-28T20:47:21.662Z,44.98
2018-12-28T20:49:50.765Z,45.06
2018-12-28T20:52:20.062Z,45.09
2018-12-28T20:54:49.157Z,45.09
2018-12-28T20:57:18.530Z,45.06
2018-12-28T20:59:47.981Z,45.10
2018-12-28T21:02:17.057Z,45.11
2018-12-28T21:04:47.170Z,45.17
2018-12-28T21:07:16.204Z,45.37
2018-12-28T21:09:45.402Z,45.43
2018-12-28T21:12:14.771Z,45.56
2018-12-28T21:14:43.865Z,45.57
2018-12-28T21:17:12.894Z,45.60
2018-12-28T21:19:42.076Z,45.60
2018-12-28T21:22:11.167Z,45.60
2018-12-28T21:24:40.287Z,45.63
2018-12-28T21:27:09.350Z,45.64
2018-12-28T21:29:38.447Z,45.62
2018-12-28T21:32:07.512Z,45.65
2018-12-28T21:34:36.631Z,45.57
2018-12-28T21:37:05.802Z,45.62
2018-12-28T21:39:34.898Z,45.63
2018-12-28T21:42:03.960Z,45.72
2018-12-28T21:44:33.024Z,45.82
2018-12-28T21:47:02.338Z,46.01
2018-12-28T21:49:31.433Z,46.17
2018-12-28T21:52:00.667Z,46.26
2018-12-28T21:54:30.017Z,46.30
2018-12-28T21:56:59.180Z,46.42
2018-12-28T21:59:28.274Z,46.54
2018-12-28T22:01:57.537Z,46.60
2018-12-28T22:04:26.862Z,46.69
2018-12-28T22:06:56.085Z,46.80
2018-12-28T22:09:25.189Z,46.82
2018-12-28T22:11:54.367Z,46.81
2018-12-28T22:14:25.683Z,46.83
2018-12-28T22:16:54.178Z,46.82
2018-12-28T22:19:23.277Z,46.88
2018-12-28T22:21:52.477Z,46.94
2018-12-28T22:24:21.598Z,47.05
2018-12-28T22:26:50.780Z,47.13
2018-12-28T22:29:19.904Z,47.30
2018-12-28T22:31:49.165Z,47.32
2018-12-28T22:34:18.234Z,47.38
2018-12-28T22:36:47.284Z,47.42
2018-12-28T22:39:16.494Z,47.55
2018-12-28T22:41:45.870Z,47.74
2018-12-28T22:44:14.981Z,47.86
2018-12-28T22:46:44.094Z,47.95
2018-12-28T22:49:13.362Z,48.11
2018-12-28T22:51:42.470Z,48.26
2018-12-28T22:54:11.574Z,48.42
2018-12-28T22:56:40.751Z,48.53
2018-12-28T22:59:10.173Z,48.65
2018-12-28T23:01:39.280Z,48.91
2018-12-28T23:04:08.341Z,49.00
2018-12-28T23:06:37.599Z,49.17
2018-12-28T23:09:07.742Z,49.40
2018-12-28T23:11:36.796Z,49.73
2018-12-28T23:14:06.894Z,49.80
2018-12-28T23:16:36.035Z,50.02
2018-12-28T23:19:05.189Z,50.05
2018-12-28T23:21:34.232Z,50.09
2018-12-28T23:24:03.373Z,50.27
2018-12-28T23:26:32.487Z,50.36
2018-12-28T23:29:01.673Z,50.44
2018-12-28T23:31:30.796Z,50.48
2018-12-28T23:33:59.868Z,50.55
2018-12-28T23:36:28.918Z,50.59
2018-12-28T23:38:58.015Z,50.69
2018-12-28T23:41:27.073Z,50.70
2018-12-28T23:43:56.348Z,50.69
2018-12-28T23:46:25.560Z,50.80
2018-12-28T23:48:54.697Z,50.82
2018-12-28T23:51:23.851Z,50.94
2018-12-28T23:53:53.065Z,51.00
2018-12-28T23:56:22.244Z,51.12
2018-12-28T23:58:51.396Z,51.06
